Time;durP1;ratioP1;P1;durP2;ratioP2;P2;SDS_P1;SDS_P2;PMS_P1;PMS_P2;Temp;Humidity;BMP_temperature;BMP_pressure;BME280_temperature;BME280_humidity;BME280_pressure;Samples;Min_cycle;Max_cycle;Signal;HPM_P1;HPM_P2
2023/11/20 00:01:41;;;;;;;19.20;12.50;;;;;;;2.50;100.00;99666.45;106248;1254;96823;-80
2023/11/20 00:04:27;;;;;;;19.60;13.40;;;;;;;2.51;100.00;99670.98;106398;1254;100031;-79
2023/11/20 00:07:13;;;;;;;20.40;13.10;;;;;;;2.53;100.00;99673.58;106084;1257;99119;-78
2023/11/20 00:09:59;;;;;;;19.20;12.70;;;;;;;2.53;100.00;99670.80;106192;1253;97707;-80
2023/11/20 00:12:44;;;;;;;19.90;12.80;;;;;;;2.53;100.00;99670.11;106681;1260;97121;-79
2023/11/20 00:15:29;;;;;;;17.90;12.20;;;;;;;2.53;100.00;99666.54;106359;1257;98026;-79
2023/11/20 00:18:15;;;;;;;20.20;12.80;;;;;;;2.53;100.00;99661.20;106356;1258;100796;-79
2023/11/20 00:21:00;;;;;;;23.60;11.90;;;;;;;2.53;100.00;99662.67;106320;1254;100277;-78
2023/11/20 00:23:46;;;;;;;18.10;11.70;;;;;;;2.53;100.00;99661.98;105800;1257;97791;-78
2023/11/20 00:26:31;;;;;;;18.90;12.80;;;;;;;2.54;100.00;99657.27;105736;1254;96554;-79
2023/11/20 00:29:20;;;;;;;22.30;15.20;;;;;;;2.54;100.00;99657.04;105932;1257;96610;-78
2023/11/20 00:32:07;;;;;;;21.60;13.60;;;;;;;2.53;100.00;99654.21;108008;1254;100076;-78
2023/11/20 00:34:53;;;;;;;24.80;15.70;;;;;;;2.53;100.00;99659.64;106021;1254;99180;-81
2023/11/20 00:37:39;;;;;;;22.60;15.00;;;;;;;2.55;100.00;99664.36;106355;1254;97710;-79
2023/11/20 00:40:25;;;;;;;26.10;15.40;;;;;;;2.56;100.00;99662.23;106341;1254;96638;-79
2023/11/20 00:43:10;;;;;;;25.70;16.30;;;;;;;2.56;100.00;99657.27;106203;1254;95897;-78
2023/11/20 00:45:56;;;;;;;22.20;14.20;;;;;;;2.57;100.00;99657.46;106052;1254;101584;-79
2023/11/20 00:48:44;;;;;;;21.40;13.60;;;;;;;2.59;100.00;99653.61;106387;1254;99933;-79
2023/11/20 00:51:30;;;;;;;21.10;13.30;;;;;;;2.60;100.00;99656.98;106245;1254;97723;-79
2023/11/20 00:54:15;;;;;;;22.90;12.50;;;;;;;2.61;100.00;99659.70;106269;1254;97685;-79
2023/11/20 00:57:01;;;;;;;18.50;12.60;;;;;;;2.61;100.00;99655.08;106453;1255;97517;-80
2023/11/20 00:59:46;;;;;;;21.80;13.50;;;;;;;2.63;100.00;99655.27;106355;1254;100862;-79
2023/11/20 01:02:32;;;;;;;17.20;12.20;;;;;;;2.64;100.00;99655.19;106456;1254;100805;-79
2023/11/20 01:05:18;;;;;;;21.10;13.80;;;;;;;2.63;100.00;99656.83;106300;1254;98980;-79
2023/11/20 01:08:05;;;;;;;20.50;13.00;;;;;;;2.62;100.00;99661.02;106420;1257;96489;-80
2023/11/20 01:10:51;;;;;;;16.80;12.30;;;;;;;2.60;100.00;99660.45;106381;1257;96777;-80
2023/11/20 01:13:37;;;;;;;19.70;12.60;;;;;;;2.59;100.00;99658.99;106434;1257;100895;-78
2023/11/20 01:16:23;;;;;;;17.60;12.20;;;;;;;2.60;100.00;99658.41;106432;1254;99336;-79
2023/11/20 01:19:09;;;;;;;20.40;13.20;;;;;;;2.61;100.00;99658.78;106319;1254;97690;-79
2023/11/20 01:21:54;;;;;;;19.30;12.50;;;;;;;2.63;100.00;99657.89;106390;1254;96616;-79
2023/11/20 01:24:40;;;;;;;19.40;11.70;;;;;;;2.64;100.00;99658.13;106427;1254;97189;-78
2023/11/20 01:27:26;;;;;;;18.30;12.30;;;;;;;2.66;100.00;99657.08;106372;1259;101791;-79
2023/11/20 01:30:12;;;;;;;18.60;12.40;;;;;;;2.67;100.00;99657.85;106890;1254;99071;-79
2023/11/20 01:32:58;;;;;;;21.10;12.40;;;;;;;2.67;100.00;99657.29;106181;1260;97841;-78
2023/11/20 01:35:43;;;;;;;19.50;13.10;;;;;;;2.67;100.00;99659.90;106250;1257;96606;-79
2023/11/20 01:38:28;;;;;;;19.80;13.50;;;;;;;2.69;100.00;99664.09;106288;1254;96834;-79
2023/11/20 01:41:14;;;;;;;20.90;13.10;;;;;;;2.71;100.00;99663.71;106219;1254;101378;-79
2023/11/20 01:44:00;;;;;;;17.80;12.80;;;;;;;2.72;100.00;99662.29;106231;1260;99148;-79
2023/11/20 01:46:46;;;;;;;19.70;13.60;;;;;;;2.72;100.00;99665.23;106436;1254;97848;-79
2023/11/20 01:49:32;;;;;;;19.50;13.40;;;;;;;2.73;100.00;99665.44;106364;1254;96609;-80
2023/11/20 01:52:17;;;;;;;19.50;13.30;;;;;;;2.75;100.00;99663.30;106453;1254;96487;-79
2023/11/20 01:55:03;;;;;;;22.40;13.90;;;;;;;2.78;100.00;99664.80;106394;1254;101318;-81
2023/11/20 01:57:50;;;;;;;17.60;12.90;;;;;;;2.79;100.00;99665.05;106525;1257;99124;-80
2023/11/20 02:00:36;;;;;;;19.60;13.90;;;;;;;2.80;100.00;99667.18;106281;1260;98474;-80
2023/11/20 02:03:22;;;;;;;25.50;15.70;;;;;;;2.80;100.00;99667.71;106272;1254;96666;-80
2023/11/20 02:06:08;;;;;;;19.00;12.80;;;;;;;2.79;100.00;99666.29;106522;1254;97910;-80
2023/11/20 02:08:53;;;;;;;20.60;13.70;;;;;;;2.77;100.00;99664.14;106343;1257;100034;-79
2023/11/20 02:11:39;;;;;;;18.50;12.70;;;;;;;2.78;100.00;99664.20;106266;1254;99734;-79
2023/11/20 02:14:25;;;;;;;17.80;12.90;;;;;;;2.80;100.00;99663.34;106293;1254;97710;-80
2023/11/20 02:17:11;;;;;;;18.10;13.20;;;;;;;2.81;100.00;99656.90;106356;1254;96587;-79
2023/11/20 02:19:56;;;;;;;19.30;12.00;;;;;;;2.80;100.00;99654.48;106154;1254;96965;-79
2023/11/20 02:22:42;;;;;;;21.50;13.70;;;;;;;2.80;100.00;99655.23;106257;1254;99974;-79
2023/11/20 02:25:27;;;;;;;19.10;13.20;;;;;;;2.81;100.00;99654.77;106334;1257;99066;-80
2023/11/20 02:28:26;;;;;;;20.60;13.60;;;;;;;2.81;100.00;99654.89;106326;1259;97727;-79
2023/11/20 02:31:11;;;;;;;20.60;14.30;;;;;;;2.82;100.00;99657.59;106308;1257;97707;-77
2023/11/20 02:34:00;;;;;;;19.50;13.40;;;;;;;2.82;100.00;99657.63;106342;1254;96681;-79
2023/11/20 02:36:45;;;;;;;18.30;12.10;;;;;;;2.82;100.00;99656.08;108567;1254;100012;-80
2023/11/20 02:39:32;;;;;;;18.40;12.80;;;;;;;2.82;100.00;99653.70;108666;1254;99117;-80
2023/11/20 02:42:20;;;;;;;19.40;13.10;;;;;;;2.84;100.00;99653.66;106640;1254;97770;-79
2023/11/20 02:45:06;;;;;;;16.80;11.00;;;;;;;2.84;100.00;99652.29;106588;1254;97473;-79
2023/11/20 02:47:52;;;;;;;17.60;12.20;;;;;;;2.83;100.00;99651.72;106585;1257;97076;-80
2023/11/20 02:50:38;;;;;;;18.00;12.00;;;;;;;2.84;100.00;99650.00;106631;1254;100041;-80
2023/11/20 02:53:23;;;;;;;15.70;11.40;;;;;;;2.84;100.00;99653.31;106722;1259;100382;-79
2023/11/20 02:56:09;;;;;;;17.90;11.90;;;;;;;2.85;100.00;99654.28;106030;1259;97790;-79
2023/11/20 02:58:55;;;;;;;17.80;11.30;;;;;;;2.86;100.00;99659.48;106211;1254;96625;-79
2023/11/20 03:01:48;;;;;;;17.60;12.00;;;;;;;2.88;100.00;99656.98;106269;1259;97600;-80
2023/11/20 03:04:33;;;;;;;18.20;11.80;;;;;;;2.88;100.00;99653.09;106274;1254;101916;-80
2023/11/20 03:07:19;;;;;;;17.10;11.60;;;;;;;2.89;100.00;99654.02;106204;1259;100624;-80
2023/11/20 03:10:05;;;;;;;17.20;12.00;;;;;;;2.90;100.00;99656.98;106321;1254;97760;-80
2023/11/20 03:12:52;;;;;;;14.50;10.80;;;;;;;2.89;100.00;99653.56;106761;1254;96933;-79
2023/11/20 03:15:38;;;;;;;14.30;10.00;;;;;;;2.89;100.00;99652.46;106817;1254;97258;-79
2023/11/20 03:18:24;;;;;;;13.40;9.60;;;;;;;2.88;100.00;99651.54;108543;1254;101812;-81
2023/11/20 03:21:09;;;;;;;16.30;10.00;;;;;;;2.89;100.00;99649.16;106930;1259;99074;-79
2023/11/20 03:23:54;;;;;;;15.00;9.80;;;;;;;2.90;100.00;99647.73;106189;1254;97771;-79
2023/11/20 03:26:41;;;;;;;17.10;10.60;;;;;;;2.89;100.00;99645.92;106275;1258;97700;-79
2023/11/20 03:29:27;;;;;;;20.20;12.90;;;;;;;2.88;100.00;99636.92;106294;1254;96843;-79
2023/11/20 03:32:12;;;;;;;20.40;12.10;;;;;;;2.85;100.00;99631.80;106221;1254;100859;-79
2023/11/20 03:34:58;;;;;;;21.80;13.00;;;;;;;2.84;100.00;99634.16;106404;1257;100419;-80
2023/11/20 03:37:44;;;;;;;24.10;13.50;;;;;;;2.85;100.00;99631.96;106245;1254;99082;-78
2023/11/20 03:40:30;;;;;;;20.40;13.20;;;;;;;2.87;100.00;99630.98;106129;1254;97685;-78
2023/11/20 03:43:15;;;;;;;25.20;15.90;;;;;;;2.90;100.00;99633.34;106421;1254;96523;-79
2023/11/20 03:46:01;;;;;;;26.70;16.30;;;;;;;2.92;100.00;99634.92;106222;1257;101996;-78
2023/11/20 03:48:46;;;;;;;28.20;16.00;;;;;;;2.93;100.00;99629.96;106241;1254;99966;-80
2023/11/20 03:51:32;;;;;;;32.20;16.70;;;;;;;2.95;100.00;99625.73;106348;1254;97841;-80
2023/11/20 03:54:17;;;;;;;31.90;17.40;;;;;;;2.96;100.00;99624.55;106198;1257;96587;-78
2023/11/20 03:57:03;;;;;;;26.40;16.70;;;;;;;2.97;100.00;99626.27;106298;1257;96623;-79
2023/11/20 03:59:49;;;;;;;26.70;16.40;;;;;;;2.96;100.00;99620.65;106262;1261;100046;-80
2023/11/20 04:02:36;;;;;;;27.80;15.50;;;;;;;2.96;100.00;99621.58;106296;1254;99137;-80
2023/11/20 04:05:21;;;;;;;24.20;15.20;;;;;;;2.97;100.00;99622.54;106810;1254;97793;-79
2023/11/20 04:08:06;;;;;;;31.90;21.20;;;;;;;2.99;100.00;99620.42;106389;1257;96695;-80
2023/11/20 04:10:52;;;;;;;30.30;17.80;;;;;;;2.97;100.00;99619.52;106202;1259;98200;-80
2023/11/20 04:13:37;;;;;;;28.70;17.10;;;;;;;2.96;100.00;99611.31;106381;1254;101238;-80
2023/11/20 04:16:23;;;;;;;31.60;16.60;;;;;;;2.97;100.00;99609.99;106626;1254;99141;-78
2023/11/20 04:19:13;;;;;;;27.40;15.40;;;;;;;2.98;100.00;99605.51;106321;1254;97714;-79
2023/11/20 04:21:59;;;;;;;25.90;13.90;;;;;;;2.97;100.00;99603.13;106456;1254;97295;-79
2023/11/20 04:24:44;;;;;;;19.40;12.10;;;;;;;2.98;100.00;99600.41;106329;1257;96564;-79
2023/11/20 04:27:30;;;;;;;19.80;12.70;;;;;;;2.98;100.00;99601.44;106332;1257;100013;-79
2023/11/20 04:30:16;;;;;;;19.40;12.10;;;;;;;2.97;100.00;99598.89;106307;1253;100338;-78
2023/11/20 04:33:01;;;;;;;22.90;13.30;;;;;;;2.99;100.00;99601.34;106193;1254;98141;-80
2023/11/20 04:35:47;;;;;;;19.70;12.70;;;;;;;3.02;100.00;99605.71;106447;1254;96530;-80
2023/11/20 04:38:33;;;;;;;20.90;12.60;;;;;;;3.03;100.00;99606.88;106291;1254;97026;-78
2023/11/20 04:41:18;;;;;;;24.50;14.90;;;;;;;3.04;100.00;99607.11;106443;1254;99985;-79
2023/11/20 04:44:04;;;;;;;22.40;13.10;;;;;;;3.04;100.00;99609.55;106332;1253;99069;-80
2023/11/20 04:46:49;;;;;;;20.30;12.90;;;;;;;3.06;100.00;99609.69;106456;1253;99105;-78
2023/11/20 04:49:37;;;;;;;27.60;17.00;;;;;;;3.07;100.00;99609.42;106364;1257;96594;-79
2023/11/20 04:52:23;;;;;;;25.20;18.10;;;;;;;3.07;100.00;99611.35;106072;1255;97023;-80
2023/11/20 04:55:08;;;;;;;26.60;17.90;;;;;;;3.07;100.00;99612.07;106478;1253;100068;-79
2023/11/20 04:57:54;;;;;;;25.70;17.10;;;;;;;3.08;100.00;99613.80;106353;1254;100340;-80
2023/11/20 05:00:39;;;;;;;28.70;19.60;;;;;;;3.07;100.00;99615.45;106330;1254;97816;-79
2023/11/20 05:03:25;;;;;;;29.00;18.30;;;;;;;3.08;100.00;99619.44;106340;1253;96596;-78
2023/11/20 05:06:11;;;;;;;78.90;48.10;;;;;;;3.07;100.00;99622.36;106449;1257;97367;-79
2023/11/20 05:08:56;;;;;;;37.70;24.50;;;;;;;3.08;100.00;99623.84;106275;1254;100087;-80
2023/11/20 05:11:42;;;;;;;41.30;25.20;;;;;;;3.06;100.00;99625.59;106332;1259;99063;-79
2023/11/20 05:14:28;;;;;;;29.50;16.30;;;;;;;3.07;100.00;99625.73;106304;1254;98998;-79
2023/11/20 05:17:17;;;;;;;34.20;24.50;;;;;;;3.08;100.00;99626.45;106370;1253;97353;-78
2023/11/20 05:20:06;;;;;;;31.90;22.90;;;;;;;3.10;100.00;99622.33;108305;1253;95867;-80
2023/11/20 05:22:52;;;;;;;25.90;17.70;;;;;;;3.12;100.00;99626.41;106341;1259;100091;-79
2023/11/20 05:25:38;;;;;;;45.40;32.90;;;;;;;3.12;100.00;99627.76;105928;1257;100595;-79
2023/11/20 05:28:24;;;;;;;38.10;31.00;;;;;;;3.13;100.00;99630.98;105847;1253;97729;-78
2023/11/20 05:31:09;;;;;;;27.50;19.30;;;;;;;3.14;100.00;99631.30;106178;1254;96696;-79
2023/11/20 05:33:55;;;;;;;26.00;16.70;;;;;;;3.16;100.00;99629.75;106402;1254;97781;-80
2023/11/20 05:36:41;;;;;;;26.20;16.30;;;;;;;3.15;100.00;99633.83;106223;1257;100897;-80
2023/11/20 05:39:26;;;;;;;20.70;13.10;;;;;;;3.15;100.00;99634.52;106252;1254;99068;-79
2023/11/20 05:42:12;;;;;;;20.10;13.30;;;;;;;3.16;100.00;99633.91;106194;1254;97885;-79
2023/11/20 05:44:57;;;;;;;26.00;14.60;;;;;;;3.17;100.00;99636.69;106251;1257;96636;-80
2023/11/20 05:47:43;;;;;;;22.30;12.40;;;;;;;3.17;100.00;99640.39;105935;1259;96610;-80
2023/11/20 05:50:28;;;;;;;17.40;11.20;;;;;;;3.15;100.00;99642.31;106062;1254;100088;-78
2023/11/20 05:53:14;;;;;;;20.20;12.20;;;;;;;3.15;100.00;99644.09;106103;1257;100431;-81
2023/11/20 05:56:00;;;;;;;21.40;14.20;;;;;;;3.16;100.00;99646.30;106299;1257;97819;-80
2023/11/20 05:58:46;;;;;;;32.00;15.70;;;;;;;3.15;100.00;99644.05;106420;1254;96521;-79
2023/11/20 06:01:38;;;;;;;25.40;15.60;;;;;;;3.14;100.00;99644.48;106505;1253;97103;-79
2023/11/20 06:04:24;;;;;;;20.10;13.10;;;;;;;3.14;100.00;99645.55;105974;1259;101350;-80
2023/11/20 06:07:11;;;;;;;23.50;13.50;;;;;;;3.14;100.00;99644.56;106097;1257;99178;-79
2023/11/20 06:09:57;;;;;;;20.00;12.10;;;;;;;3.13;100.00;99647.07;106248;1254;99843;-80
2023/11/20 06:12:42;;;;;;;22.20;12.10;;;;;;;3.11;100.00;99648.59;106069;1261;96522;-78
2023/11/20 06:15:28;;;;;;;20.70;11.00;;;;;;;3.09;100.00;99644.52;106214;1259;97028;-80
2023/11/20 06:18:13;;;;;;;18.00;10.60;;;;;;;3.08;100.00;99649.58;106221;1254;100000;-78
2023/11/20 06:20:58;;;;;;;21.20;12.80;;;;;;;3.07;100.00;99650.48;106202;1254;100851;-79
2023/11/20 06:23:45;;;;;;;15.60;10.30;;;;;;;3.07;100.00;99651.56;106753;1254;98401;-79
2023/11/20 06:26:30;;;;;;;22.70;10.60;;;;;;;3.07;100.00;99653.90;106242;1257;97362;-80
2023/11/20 06:29:16;;;;;;;17.50;9.00;;;;;;;3.08;100.00;99660.88;106383;1257;96532;-79
2023/11/20 06:32:02;;;;;;;15.20;9.10;;;;;;;3.06;100.00;99660.89;106200;1258;100845;-79
2023/11/20 06:34:48;;;;;;;12.70;8.10;;;;;;;3.05;100.00;99666.50;106202;1259;99158;-80
2023/11/20 06:37:34;;;;;;;15.70;8.70;;;;;;;3.02;100.00;99672.27;106092;1254;97702;-80
2023/11/20 06:40:19;;;;;;;14.80;8.20;;;;;;;2.99;100.00;99672.00;106151;1254;96799;-79
2023/11/20 06:43:05;;;;;;;14.40;8.50;;;;;;;2.98;100.00;99668.83;106323;1254;96743;-80
2023/11/20 06:45:50;;;;;;;13.10;7.70;;;;;;;2.98;100.00;99670.58;106294;1253;100746;-80
2023/11/20 06:48:36;;;;;;;14.70;7.20;;;;;;;2.96;100.00;99676.02;106309;1254;100979;-79
2023/11/20 06:51:22;;;;;;;12.70;7.10;;;;;;;2.94;100.00;99677.11;106217;1254;97778;-80
2023/11/20 06:54:08;;;;;;;10.60;7.40;;;;;;;2.93;100.00;99678.50;106281;1254;97252;-81
2023/11/20 06:56:54;;;;;;;9.90;6.60;;;;;;;2.90;100.00;99680.73;107057;1254;96421;-81
2023/11/20 06:59:39;;;;;;;10.80;6.90;;;;;;;2.90;100.00;99683.12;106983;1254;100081;-80
2023/11/20 07:02:25;;;;;;;8.70;6.00;;;;;;;2.90;100.00;99686.81;106976;1257;99136;-80
2023/11/20 07:05:16;;;;;;;11.80;6.30;;;;;;;2.88;100.00;99692.95;107054;1254;97721;-81
2023/11/20 07:08:06;;;;;;;8.00;5.40;;;;;;;2.87;100.00;99690.80;107131;1257;96571;-80
2023/11/20 07:10:52;;;;;;;9.00;5.60;;;;;;;2.88;100.00;99697.53;107085;1258;96498;-81
2023/11/20 07:13:38;;;;;;;7.20;5.30;;;;;;;2.91;100.00;99702.14;107070;1259;100669;-80
2023/11/20 07:16:24;;;;;;;8.30;5.70;;;;;;;2.92;100.00;99704.48;106106;1253;99248;-79
2023/11/20 07:19:10;;;;;;;8.40;6.10;;;;;;;2.93;100.00;99704.72;106136;1254;97744;-79
2023/11/20 07:21:55;;;;;;;7.30;5.80;;;;;;;2.95;100.00;99713.59;106258;1257;96604;-79
2023/11/20 07:24:42;;;;;;;7.60;5.00;;;;;;;2.95;100.00;99713.73;106184;1254;96618;-79
2023/11/20 07:27:27;;;;;;;8.90;5.80;;;;;;;2.94;100.00;99707.64;106090;1255;101739;-79
2023/11/20 07:30:13;;;;;;;7.20;5.30;;;;;;;2.92;100.00;99704.55;106236;1254;99223;-80
2023/11/20 07:33:00;;;;;;;8.80;5.10;;;;;;;2.93;100.00;99706.92;106263;1257;98436;-79
2023/11/20 07:35:45;;;;;;;8.90;5.60;;;;;;;2.93;100.00;99706.34;106122;1258;96817;-79
2023/11/20 07:38:31;;;;;;;8.40;5.30;;;;;;;2.93;100.00;99710.48;106351;1259;96509;-80
2023/11/20 07:41:18;;;;;;;9.40;5.80;;;;;;;2.92;100.00;99708.39;106158;1254;99987;-77
2023/11/20 07:44:04;;;;;;;8.20;6.30;;;;;;;2.92;100.00;99705.05;106065;1259;99145;-79
2023/11/20 07:46:49;;;;;;;9.50;6.30;;;;;;;2.92;100.00;99708.59;106165;1254;97699;-80
2023/11/20 07:49:38;;;;;;;12.50;6.90;;;;;;;2.95;100.00;99707.05;106075;1260;96594;-79
2023/11/20 07:52:24;;;;;;;10.60;6.40;;;;;;;2.94;100.00;99708.86;106305;1254;96486;-79
2023/11/20 07:55:11;;;;;;;12.60;6.60;;;;;;;2.93;100.00;99708.50;106121;1254;100084;-78
2023/11/20 07:57:57;;;;;;;15.90;8.30;;;;;;;2.93;100.00;99705.98;105890;1254;99062;-79
2023/11/20 08:00:43;;;;;;;13.60;7.30;;;;;;;2.96;100.00;99706.75;106321;1254;97723;-79
2023/11/20 08:03:28;;;;;;;12.80;7.30;;;;;;;2.98;100.00;99709.20;106152;1259;96720;-79
2023/11/20 08:06:14;;;;;;;13.50;9.20;;;;;;;3.00;100.00;99712.50;106018;1254;97029;-78
2023/11/20 08:08:59;;;;;;;16.80;9.60;;;;;;;3.08;100.00;99710.05;106211;1257;101238;-78
2023/11/20 08:11:45;;;;;;;15.60;10.20;;;;;;;3.15;100.00;99706.38;106145;1257;99234;-77
2023/11/20 08:14:31;;;;;;;31.60;16.40;;;;;;;3.17;100.00;99704.16;106238;1254;97738;-79
2023/11/20 08:17:17;;;;;;;23.60;12.80;;;;;;;3.20;100.00;99710.98;106263;1258;97483;-79
2023/11/20 08:20:04;;;;;;;15.90;8.80;;;;;;;3.21;100.00;99711.33;106227;1254;98013;-78
2023/11/20 08:22:50;;;;;;;13.70;8.50;;;;;;;3.22;100.00;99713.88;106264;1257;99899;-79
2023/11/20 08:25:35;;;;;;;16.20;9.10;;;;;;;3.23;100.00;99720.33;106164;1254;100334;-78
2023/11/20 08:28:21;;;;;;;17.60;8.80;;;;;;;3.23;100.00;99718.05;106157;1257;99157;-78
2023/11/20 08:31:07;;;;;;;15.10;9.40;;;;;;;3.22;100.00;99715.10;106180;1255;97893;-79
2023/11/20 08:33:53;;;;;;;16.60;10.10;;;;;;;3.23;100.00;99716.95;106346;1254;97130;-80
2023/11/20 08:36:39;;;;;;;17.40;10.60;;;;;;;3.25;100.00;99720.50;106130;1259;100871;-78
2023/11/20 08:39:31;;;;;;;18.80;11.30;;;;;;;3.28;100.00;99722.95;106224;1257;100305;-78
2023/11/20 08:42:18;;;;;;;17.70;10.20;;;;;;;3.30;100.00;99720.94;106171;1257;97832;-79
2023/11/20 08:45:04;;;;;;;26.00;14.10;;;;;;;3.33;100.00;99719.42;106261;1254;97808;-79
2023/11/20 08:47:50;;;;;;;30.50;18.20;;;;;;;3.37;100.00;99719.16;106157;1254;97026;-79
2023/11/20 08:50:36;;;;;;;40.00;23.20;;;;;;;3.41;100.00;99720.65;105989;1259;129454;-79
2023/11/20 08:53:22;;;;;;;39.80;23.70;;;;;;;3.45;100.00;99723.09;106224;1254;100496;-78
2023/11/20 08:56:07;;;;;;;35.10;19.30;;;;;;;3.49;100.00;99723.13;106093;1259;98998;-78
2023/11/20 08:58:53;;;;;;;51.50;27.30;;;;;;;3.54;100.00;99722.30;106194;1254;96599;-79
2023/11/20 09:01:39;;;;;;;53.70;27.20;;;;;;;3.57;100.00;99724.96;106052;1259;97119;-78
2023/11/20 09:04:26;;;;;;;42.80;23.80;;;;;;;3.60;100.00;99722.66;106050;1254;100639;-80
2023/11/20 09:07:12;;;;;;;58.00;30.70;;;;;;;3.65;100.00;99722.52;106223;1255;99134;-78
2023/11/20 09:09:58;;;;;;;55.70;30.20;;;;;;;3.68;100.00;99720.17;105754;1257;97706;-77
2023/11/20 09:12:44;;;;;;;79.90;42.40;;;;;;;3.71;100.00;99717.41;105764;1255;96546;-77
2023/11/20 09:15:30;;;;;;;84.60;46.30;;;;;;;3.75;100.00;99720.89;105583;1254;96520;-78
2023/11/20 09:18:16;;;;;;;63.40;36.10;;;;;;;3.79;100.00;99719.95;106132;1255;100070;-78
2023/11/20 09:21:04;;;;;;;83.00;45.20;;;;;;;3.81;100.00;99717.73;106117;1254;100502;-79
2023/11/20 09:23:50;;;;;;;63.20;32.10;;;;;;;3.85;100.00;99715.36;106086;1254;97747;-81
2023/11/20 09:26:36;;;;;;;61.10;28.50;;;;;;;3.90;100.00;99716.58;106071;1255;97128;-78
2023/11/20 09:29:22;;;;;;;63.80;36.10;;;;;;;3.94;100.00;99716.71;106051;1254;96405;-77
2023/11/20 09:32:07;;;;;;;68.60;33.40;;;;;;;3.97;100.00;99719.36;105589;1254;100110;-77
2023/11/20 09:34:52;;;;;;;48.00;25.10;;;;;;;3.99;100.00;99716.48;105996;1257;100501;-79
2023/11/20 09:37:38;;;;;;;53.10;26.50;;;;;;;4.00;100.00;99715.81;106208;1258;97819;-79
2023/11/20 09:40:24;;;;;;;45.60;24.20;;;;;;;4.02;100.00;99708.19;106058;1257;96593;-79
2023/11/20 09:43:09;;;;;;;48.20;25.00;;;;;;;4.05;100.00;99708.89;105731;1254;96700;-78
2023/11/20 09:45:59;;;;;;;52.90;28.60;;;;;;;4.05;100.00;99703.42;105736;1257;101274;-79
2023/11/20 09:48:48;;;;;;;48.40;24.60;;;;;;;4.07;100.00;99708.89;106060;1257;99172;-78
2023/11/20 09:51:36;;;;;;;49.90;27.30;;;;;;;4.10;100.00;99711.98;106074;1258;97756;-79
2023/11/20 09:54:24;;;;;;;45.60;26.60;;;;;;;4.11;100.00;99713.02;106324;1254;97202;-78
2023/11/20 09:57:09;;;;;;;50.00;23.30;;;;;;;4.13;100.00;99717.23;106305;1257;97509;-79
2023/11/20 09:59:57;;;;;;;47.70;22.40;;;;;;;4.15;100.00;99712.66;106197;1254;100718;-79
2023/11/20 10:02:45;;;;;;;68.40;35.40;;;;;;;4.15;100.00;99711.87;106134;1253;99390;-79
2023/11/20 10:05:38;;;;;;;80.70;43.60;;;;;;;4.18;100.00;99707.88;105937;1260;97568;-79
2023/11/20 10:08:23;;;;;;;138.50;46.00;;;;;;;4.21;100.00;99702.58;106074;1259;97899;-78
2023/11/20 10:11:11;;;;;;;126.30;44.70;;;;;;;4.23;100.00;99698.23;106024;1257;97058;-78
2023/11/20 10:13:57;;;;;;;63.50;31.40;;;;;;;4.25;100.00;99699.30;106038;1254;99976;-80
2023/11/20 10:16:44;;;;;;;311.50;74.70;;;;;;;4.26;100.00;99698.33;106175;1257;100153;-79
2023/11/20 10:19:30;;;;;;;107.10;49.50;;;;;;;4.26;100.00;99699.16;107376;1257;97752;-79
2023/11/20 10:22:19;;;;;;;130.10;52.00;;;;;;;4.26;100.00;99699.85;106128;1259;96412;-79
2023/11/20 10:25:06;;;;;;;121.80;51.40;;;;;;;4.26;100.00;99699.13;106447;1258;96495;-79
2023/11/20 10:27:54;;;;;;;136.80;67.00;;;;;;;4.26;100.00;99697.73;105999;1259;101319;-79
2023/11/20 10:30:45;;;;;;;116.40;56.70;;;;;;;4.28;100.00;99696.81;105961;1258;99145;-78
2023/11/20 10:33:30;;;;;;;56.60;29.60;;;;;;;4.35;100.00;99691.85;106086;1257;97695;-79
2023/11/20 10:36:16;;;;;;;101.50;50.00;;;;;;;4.37;100.00;99683.77;106103;1254;97779;-78
2023/11/20 10:39:03;;;;;;;58.50;32.80;;;;;;;4.39;100.00;99677.89;106125;1254;96567;-79
2023/11/20 10:41:49;;;;;;;54.80;28.90;;;;;;;4.40;100.00;99677.39;106053;1254;100728;-80
2023/11/20 10:44:36;;;;;;;61.00;33.40;;;;;;;4.42;100.00;99675.59;105819;1255;99130;-78
2023/11/20 10:47:25;;;;;;;57.00;27.60;;;;;;;4.45;100.00;99679.76;106014;1259;100014;-80
2023/11/20 10:50:13;;;;;;;80.30;39.30;;;;;;;4.45;100.00;99679.20;106956;1255;96636;-78
2023/11/20 10:53:06;;;;;;;66.70;33.40;;;;;;;4.44;100.00;99675.36;106699;1253;95833;-80
2023/11/20 10:55:55;;;;;;;45.70;23.10;;;;;;;4.46;100.00;99670.25;106180;1254;100023;-79
2023/11/20 10:58:43;;;;;;;42.90;22.10;;;;;;;4.48;100.00;99674.43;106021;1254;99091;-78
2023/11/20 11:01:30;;;;;;;34.60;15.90;;;;;;;4.49;100.00;99681.19;105934;1259;98560;-78
2023/11/20 11:04:18;;;;;;;38.90;16.30;;;;;;;4.48;100.00;99686.42;106038;1254;97288;-78
2023/11/20 11:07:08;;;;;;;29.20;15.30;;;;;;;4.47;100.00;99684.97;106101;1257;97051;-78
2023/11/20 11:09:54;;;;;;;30.40;14.50;;;;;;;4.46;100.00;99673.77;106098;1259;100049;-78
2023/11/20 11:12:44;;;;;;;34.30;17.30;;;;;;;4.47;100.00;99669.05;106009;1254;99714;-78
2023/11/20 11:15:31;;;;;;;71.80;29.80;;;;;;;4.52;100.00;99665.36;105914;1259;97922;-79
2023/11/20 11:18:23;;;;;;;80.50;34.30;;;;;;;4.56;100.00;99665.89;106094;1257;96597;-78
2023/11/20 11:21:10;;;;;;;108.60;50.30;;;;;;;4.59;100.00;99659.77;106217;1257;97638;-79
2023/11/20 11:23:57;;;;;;;80.20;34.20;;;;;;;4.60;100.00;99664.58;105945;1259;100675;-79
2023/11/20 11:26:53;;;;;;;42.60;20.80;;;;;;;4.58;100.00;99659.80;106109;1258;100327;-79
2023/11/20 11:29:43;;;;;;;40.40;18.90;;;;;;;4.55;100.00;99659.13;106046;1254;97845;-78
2023/11/20 11:32:40;;;;;;;37.40;18.90;;;;;;;4.55;100.00;99657.33;105943;1258;96698;-78
2023/11/20 11:35:47;;;;;;;39.70;18.40;;;;;;;4.56;100.00;99660.38;106112;1258;96515;-78
2023/11/20 11:38:45;;;;;;;91.00;47.20;;;;;;;4.58;100.00;99657.77;105765;1254;100173;-78
2023/11/20 11:41:47;;;;;;;85.30;46.50;;;;;;;4.60;100.00;99657.11;105611;1261;99154;-79
2023/11/20 11:45:05;;;;;;;100.80;45.70;;;;;;;4.65;100.00;99660.14;105463;1259;97735;-77
2023/11/20 11:47:50;;;;;;;178.20;92.60;;;;;;;4.69;100.00;99656.60;106113;1259;96602;-79
2023/11/20 11:50:37;;;;;;;175.00;102.70;;;;;;;4.70;100.00;99654.45;106070;1258;97071;-77
2023/11/20 11:53:24;;;;;;;80.10;49.00;;;;;;;4.70;100.00;99651.56;105972;1258;100054;-79
2023/11/20 11:56:14;;;;;;;68.50;37.90;;;;;;;4.72;100.00;99653.88;105863;1254;99155;-78
2023/11/20 11:59:05;;;;;;;98.40;49.60;;;;;;;4.73;100.00;99657.33;106122;1254;97738;-79
2023/11/20 12:01:54;;;;;;;67.20;34.10;;;;;;;4.75;100.00;99657.27;107261;1259;96585;-84
2023/11/20 12:04:51;;;;;;;84.90;36.50;;;;;;;4.75;100.00;99656.69;106684;1254;98053;-83
2023/11/20 12:07:40;;;;;;;70.90;38.90;;;;;;;4.74;100.00;99653.08;106581;1259;100771;-83
2023/11/20 12:10:39;;;;;;;51.90;25.70;;;;;;;4.75;100.00;99650.48;106129;1257;99057;-83
2023/11/20 12:13:29;;;;;;;60.10;32.10;;;;;;;4.75;100.00;99648.36;106360;1254;99179;-81
2023/11/20 12:16:19;;;;;;;44.70;21.90;;;;;;;4.76;100.00;99648.16;106136;1259;96628;-79
2023/11/20 12:19:05;;;;;;;108.60;66.90;;;;;;;4.77;100.00;99649.98;106265;1259;96532;-79
2023/11/20 12:21:53;;;;;;;142.90;59.80;;;;;;;4.79;100.00;99650.44;106259;1258;100111;-78
2023/11/20 12:24:39;;;;;;;144.60;59.00;;;;;;;4.81;100.00;99654.77;105631;1257;99182;-79
2023/11/20 12:27:25;;;;;;;96.20;46.20;;;;;;;4.84;100.00;99652.21;105752;1258;99070;-85
2023/11/20 12:30:12;;;;;;;95.50;45.00;;;;;;;4.86;100.00;99653.55;106596;1261;95726;-87
2023/11/20 12:32:58;;;;;;;59.00;28.40;;;;;;;4.87;100.00;99649.33;106929;1257;96499;-88
2023/11/20 12:35:49;;;;;;;65.20;28.40;;;;;;;4.86;100.00;99649.98;106317;1259;100187;-83
2023/11/20 12:38:36;;;;;;;;;;;;;;;4.85;100.00;99645.46;106269;1256;101303;-85